Terminal Aerodrome Forecast
Issued by NWS

Home | Current Version | Previous Version | Text Only | Print | Product List | Glossary On
Versions: 1 2 3 4 5 6 7 8 9 10 11 12 13 14 15 16 17 18 19 20 21 22 23 24 25 26 27 28 29 30 31 32 33 34 35 36 37 38 39 40 41 42
000
FTUS46 KMFR 201200 AAA
TAFLMT
TAF AMD
KLMT 201200Z 2012/2112 17023G31KT P6SM BKN050
     FM201600 22011KT P6SM -RA BKN030 OVC040
     FM202100 27014KT P6SM -SHRA BKN035 OVC045
     FM210300 30005KT 5SM -RASN BR SCT025 OVC040=

USA.gov is the U.S. government's official web portal to all federal, state and local government web resources and services.